Airfield :
LOGIN :

Register | Disclaimer

   EN    FR    IT 

 










Legend :    VFR   Marginal VFR   IFR   Intensive IFR   Very Intensive IFR
Visi :
Ceiling :
>= 8 km
>= 3000ft
5 to 8 km
1000 to 3000 ft
1500m to 5 km
500 to 1000 ft
800 to 1500m
200 to 500 ft
< 800m
< 200 ft
Symbols :   Thunderstorms  Fog  Heavy snow  Heavy precipitations  Wind > 20 kt
SIGMETs :     Misc.  Thunderstorms  Icing  Turbulence  Mountain Waves  Volcanic Ashes






- Airport Elevation : 782 ft
- IATA code : BGY


LIME - Orio al Serio International - Bergamo

CURRENT METAR :
  • 130550Z VRB02KT 1500 -SN BR BKN003 01/01 Q0994 NOSIG

EXPIRED METARs :
  • 130520Z VRB02KT 2000 BR SCT003 BKN040 01/01 Q0994 R28/290195 NOSIG
  • 130450Z VRB01KT 1200 R28/P1500N BR BKN010 00/00 Q0994 R28/290195 NOSIG
  • 130420Z VRB02KT 1200 R28/P1500N -SN BR SCT002 BKN010 00/00 Q0995 R28/290195 NOSIG
  • 130350Z 19003KT 1800 -SN BR BKN015 01/00 Q0996 R28/290195 NOSIG
  • 130320Z VRB02KT 1800 -SN BR BKN020 00/00 Q0996 NOSIG

TAF TAF LIME
Valid from the 13 at 06:00 until the 14 at 06:00 UTC


130500Z 1306/1406 VRB05KT 1000 SN OVC010
BECMG 1313/1315 33008KT 7000 SCT030 SCT070



MET'MAP, your aeronautical weather chart ! - Copyright ORBIFLY December 2007 - Disclaimer

ORBIFLY MET'MAP TEAM :

Programming & Development : Alexandra Zaïnal
Concept & original design : Baudouin d'Aumeries
Assistance for programming : Marc-Olivier Méhu
Technical & hardware support : Manuel Goepfert

Contact : metmap@orbifly.com




SOURCES & CREDITS :

   NOAA